Time;durP1;ratioP1;P1;durP2;ratioP2;P2;SDS_P1;SDS_P2;PMS_P1;PMS_P2;Temp;Humidity;BMP_temperature;BMP_pressure;BME280_temperature;BME280_humidity;BME280_pressure;Samples;Min_cycle;Max_cycle;Signal;HPM_P1;HPM_P2
2022/11/23 00:01:22;;;;;;;9.37;4.87;;;9.00;99.90;;;;;;5015383;28;20026;-79
2022/11/23 00:03:50;;;;;;;11.97;4.20;;;9.00;99.90;;;;;;5015279;28;20033;-80
2022/11/23 00:06:16;;;;;;;11.30;4.37;;;9.00;99.90;;;;;;4998872;28;20057;-79
2022/11/23 00:08:43;;;;;;;12.23;4.83;;;9.00;99.90;;;;;;5014764;28;20022;-79
2022/11/23 00:11:09;;;;;;;11.07;5.00;;;9.10;99.90;;;;;;5015079;28;20030;-80
2022/11/23 00:13:35;;;;;;;12.77;5.03;;;9.00;99.90;;;;;;5016160;28;20029;-80
2022/11/23 00:16:05;;;;;;;13.10;5.43;;;9.10;99.90;;;;;;5015171;28;20096;-79
2022/11/23 00:18:31;;;;;;;11.17;5.50;;;9.10;99.90;;;;;;5014852;28;20120;-79
2022/11/23 00:20:57;;;;;;;13.50;6.07;;;9.10;99.90;;;;;;5014739;28;20021;-79
2022/11/23 00:23:22;;;;;;;14.67;5.80;;;9.10;99.90;;;;;;5016220;28;20430;-79
2022/11/23 00:25:48;;;;;;;12.87;5.87;;;9.10;99.90;;;;;;4998614;28;20030;-79
2022/11/23 00:28:13;;;;;;;15.37;5.83;;;9.10;99.90;;;;;;5016157;28;20030;-79
2022/11/23 00:30:39;;;;;;;11.73;5.37;;;9.10;99.90;;;;;;5015110;28;20033;-79
2022/11/23 00:33:05;;;;;;;14.63;5.13;;;9.10;99.90;;;;;;5014845;28;20030;-79
2022/11/23 00:35:30;;;;;;;12.23;5.90;;;9.10;99.90;;;;;;4997726;28;20034;-79
2022/11/23 00:37:56;;;;;;;11.37;5.47;;;9.10;99.90;;;;;;5014817;28;20022;-79
2022/11/23 00:40:21;;;;;;;11.13;5.37;;;9.10;99.90;;;;;;4998257;28;20483;-80
2022/11/23 00:42:47;;;;;;;13.13;5.60;;;9.10;99.90;;;;;;5014400;28;20030;-79
2022/11/23 00:45:12;;;;;;;12.03;6.17;;;9.20;99.90;;;;;;5013912;28;20034;-79
2022/11/23 00:47:38;;;;;;;11.73;5.33;;;9.20;99.90;;;;;;4998098;28;20037;-80
2022/11/23 00:50:04;;;;;;;11.87;6.10;;;9.20;99.90;;;;;;4998233;28;20029;-79
2022/11/23 00:52:30;;;;;;;14.77;6.63;;;9.20;99.90;;;;;;5014212;28;20387;-79
2022/11/23 00:54:55;;;;;;;15.80;6.07;;;9.20;99.90;;;;;;4998063;28;20045;-79
2022/11/23 00:57:21;;;;;;;11.33;6.13;;;9.20;99.90;;;;;;4997637;28;20042;-79
2022/11/23 00:59:47;;;;;;;17.70;6.80;;;9.20;99.90;;;;;;5014402;28;20026;-79
2022/11/23 01:02:12;;;;;;;14.73;6.70;;;9.20;99.90;;;;;;4997822;28;20030;-79
2022/11/23 01:04:38;;;;;;;16.77;6.30;;;9.30;99.90;;;;;;4998123;28;20092;-79
2022/11/23 01:07:04;;;;;;;25.23;6.70;;;9.30;99.90;;;;;;5013936;28;20068;-79
2022/11/23 01:09:30;;;;;;;14.43;6.37;;;9.30;99.90;;;;;;4997338;28;20055;-79
2022/11/23 01:11:55;;;;;;;13.07;5.97;;;9.30;99.90;;;;;;4997827;28;20129;-79
2022/11/23 01:14:21;;;;;;;12.60;5.80;;;9.20;99.90;;;;;;4997579;28;20497;-79
2022/11/23 01:16:48;;;;;;;15.10;5.53;;;9.30;99.90;;;;;;5013740;28;20135;-79
2022/11/23 01:19:18;;;;;;;12.53;5.70;;;9.30;99.90;;;;;;5015108;28;20026;-80
2022/11/23 01:21:44;;;;;;;13.30;4.70;;;9.30;99.90;;;;;;5013786;28;20482;-80
2022/11/23 01:24:15;;;;;;;16.90;6.27;;;9.40;99.90;;;;;;5013599;28;20030;-79
2022/11/23 01:26:42;;;;;;;15.50;6.30;;;9.30;99.90;;;;;;5029889;28;20469;-79
2022/11/23 01:29:08;;;;;;;16.10;5.40;;;9.30;99.90;;;;;;4997724;28;20389;-79
2022/11/23 01:31:34;;;;;;;15.00;6.50;;;9.30;99.90;;;;;;5013465;28;20029;-79
2022/11/23 01:34:01;;;;;;;16.13;6.27;;;9.30;99.90;;;;;;5014216;28;20094;-79
2022/11/23 01:36:29;;;;;;;13.57;4.57;;;9.30;99.90;;;;;;5013428;28;20073;-79
2022/11/23 01:38:56;;;;;;;15.63;5.90;;;9.40;99.90;;;;;;5013129;28;20104;-79
2022/11/23 01:41:24;;;;;;;12.80;5.23;;;9.40;99.90;;;;;;5013402;28;20168;-79
2022/11/23 01:43:50;;;;;;;11.23;4.67;;;9.40;99.90;;;;;;5014633;28;20030;-79
2022/11/23 01:46:17;;;;;;;13.13;4.80;;;9.40;99.90;;;;;;5012576;28;20026;-79
2022/11/23 01:48:55;;;;;;;14.07;4.17;;;9.40;99.90;;;;;;5013549;28;20112;-79
2022/11/23 01:51:26;;;;;;;16.00;4.67;;;9.40;99.90;;;;;;5012920;28;20026;-79
2022/11/23 01:53:55;;;;;;;14.37;5.13;;;9.30;99.90;;;;;;5013352;28;20022;-79
2022/11/23 01:56:27;;;;;;;12.13;3.50;;;9.40;99.90;;;;;;5012895;28;20033;-79
2022/11/23 01:58:55;;;;;;;14.37;4.37;;;9.40;99.90;;;;;;5013283;28;20060;-80
2022/11/23 02:01:20;;;;;;;20.03;4.87;;;9.30;99.90;;;;;;5013489;28;20485;-80
2022/11/23 02:03:48;;;;;;;15.53;4.70;;;9.40;99.90;;;;;;4996716;28;20025;-80
2022/11/23 02:06:16;;;;;;;12.37;3.77;;;9.40;99.90;;;;;;5012776;28;20048;-80
2022/11/23 02:08:43;;;;;;;9.73;3.47;;;9.40;99.90;;;;;;5013074;28;20049;-79
2022/11/23 02:11:12;;;;;;;14.20;3.80;;;9.30;99.90;;;;;;5013094;28;20096;-80
2022/11/23 02:13:38;;;;;;;13.00;3.93;;;9.30;99.90;;;;;;5012739;28;20036;-80
2022/11/23 02:16:04;;;;;;;16.67;4.00;;;9.30;99.90;;;;;;4996315;28;20038;-79
2022/11/23 02:18:33;;;;;;;15.53;4.23;;;9.30;99.90;;;;;;4996090;28;20402;-79
2022/11/23 02:21:00;;;;;;;17.17;3.70;;;9.30;99.90;;;;;;5012763;28;20120;-79
2022/11/23 02:23:38;;;;;;;16.13;3.27;;;9.40;99.90;;;;;;5012792;28;20492;-80
2022/11/23 02:26:18;;;;;;;13.93;3.53;;;9.30;99.90;;;;;;5013631;28;20030;-79
2022/11/23 02:28:48;;;;;;;12.90;3.37;;;9.40;99.90;;;;;;5012410;28;20453;-79
2022/11/23 02:31:13;;;;;;;12.80;4.20;;;9.30;99.90;;;;;;5012525;28;20056;-79
2022/11/23 02:33:39;;;;;;;9.47;3.37;;;9.30;99.90;;;;;;4996505;28;20053;-79
2022/11/23 02:36:27;;;;;;;12.70;3.70;;;9.30;99.90;;;;;;4996262;28;20068;-79
2022/11/23 02:38:55;;;;;;;10.47;3.53;;;9.30;99.90;;;;;;5012067;28;20171;-79
2022/11/23 02:41:20;;;;;;;12.90;3.83;;;9.30;99.90;;;;;;4996116;28;20026;-79
2022/11/23 02:43:51;;;;;;;11.47;3.37;;;9.30;99.90;;;;;;4995854;28;20116;-78
2022/11/23 02:46:17;;;;;;;17.63;3.97;;;9.30;99.90;;;;;;5012402;28;20466;-81
2022/11/23 02:48:42;;;;;;;10.03;2.97;;;9.30;99.90;;;;;;4996185;28;20028;-80
2022/11/23 02:51:08;;;;;;;11.27;3.83;;;9.30;99.90;;;;;;4996023;28;20068;-80
2022/11/23 02:53:34;;;;;;;12.20;3.60;;;9.30;99.90;;;;;;4995675;28;20030;-80
2022/11/23 02:55:59;;;;;;;15.73;3.80;;;9.30;99.90;;;;;;4995542;28;20049;-80
2022/11/23 02:58:25;;;;;;;16.33;4.10;;;9.30;99.90;;;;;;4996015;28;20080;-81
2022/11/23 03:00:51;;;;;;;8.63;2.93;;;9.30;99.90;;;;;;5012171;28;20523;-80
2022/11/23 03:03:16;;;;;;;8.53;3.13;;;9.40;99.90;;;;;;5012656;28;20030;-79
2022/11/23 03:05:42;;;;;;;13.20;4.03;;;9.40;99.90;;;;;;4995622;28;20391;-80
2022/11/23 03:08:07;;;;;;;7.53;2.10;;;9.40;99.90;;;;;;5012020;28;20030;-80
2022/11/23 03:10:33;;;;;;;16.33;4.27;;;9.40;99.90;;;;;;5012180;28;20030;-80
2022/11/23 03:12:59;;;;;;;14.43;3.40;;;9.40;99.90;;;;;;5011996;28;20033;-80
2022/11/23 03:15:24;;;;;;;11.10;3.00;;;9.40;99.90;;;;;;4995681;28;20029;-80
2022/11/23 03:17:50;;;;;;;12.23;2.70;;;9.40;99.90;;;;;;4995347;28;20053;-80
2022/11/23 03:20:16;;;;;;;10.77;3.30;;;9.40;99.90;;;;;;4995738;28;20026;-80
2022/11/23 03:22:42;;;;;;;15.00;3.00;;;9.50;99.90;;;;;;4995759;28;20180;-80
2022/11/23 03:25:08;;;;;;;10.20;2.90;;;9.50;99.90;;;;;;5012107;28;20034;-80
2022/11/23 03:27:33;;;;;;;11.83;2.10;;;9.40;99.90;;;;;;5012852;28;20548;-80
2022/11/23 03:29:59;;;;;;;13.47;2.43;;;9.50;99.90;;;;;;4995593;28;20528;-80
2022/11/23 03:32:25;;;;;;;11.00;2.30;;;9.50;99.90;;;;;;5012033;28;20052;-79
2022/11/23 03:34:51;;;;;;;8.93;2.07;;;9.50;99.90;;;;;;4995454;28;20061;-79
2022/11/23 03:37:16;;;;;;;7.87;2.10;;;9.50;99.90;;;;;;5011830;28;20112;-79
2022/11/23 03:39:42;;;;;;;7.90;1.43;;;9.50;99.90;;;;;;4995344;28;20060;-79
2022/11/23 03:42:07;;;;;;;10.43;2.13;;;9.50;99.90;;;;;;4995349;28;20029;-79
2022/11/23 03:44:33;;;;;;;9.50;2.03;;;9.50;99.90;;;;;;5011550;28;20537;-79
2022/11/23 03:46:59;;;;;;;10.40;2.27;;;9.50;99.90;;;;;;5011665;28;20030;-80
2022/11/23 03:49:25;;;;;;;13.30;2.17;;;9.50;99.90;;;;;;4993007;28;20389;-79
2022/11/23 03:51:50;;;;;;;13.53;1.83;;;9.50;99.90;;;;;;4991225;28;20023;-80
2022/11/23 03:54:16;;;;;;;11.33;2.23;;;9.40;99.90;;;;;;4975636;28;20037;-81
2022/11/23 03:56:42;;;;;;;7.60;1.40;;;9.60;99.90;;;;;;4991564;28;20054;-81
2022/11/23 03:59:07;;;;;;;10.10;1.97;;;9.60;99.90;;;;;;4992179;28;20023;-81
2022/11/23 04:01:33;;;;;;;8.97;2.40;;;9.60;99.90;;;;;;4992202;28;20046;-80
2022/11/23 04:03:59;;;;;;;13.77;2.87;;;9.50;99.90;;;;;;4992174;28;20034;-79
2022/11/23 04:06:24;;;;;;;11.83;2.30;;;9.50;99.90;;;;;;4975643;28;20031;-79
2022/11/23 04:08:50;;;;;;;11.77;1.90;;;9.50;99.90;;;;;;4976068;28;20043;-79
2022/11/23 04:11:15;;;;;;;7.37;1.70;;;9.60;99.90;;;;;;4978522;28;20030;-80
2022/11/23 04:13:41;;;;;;;13.13;1.90;;;9.60;99.90;;;;;;4995339;28;20501;-80
2022/11/23 04:16:07;;;;;;;9.53;1.90;;;9.60;99.90;;;;;;4978733;28;20510;-79
2022/11/23 04:18:32;;;;;;;11.37;1.50;;;9.60;99.90;;;;;;4995277;28;20057;-79
2022/11/23 04:20:58;;;;;;;10.83;2.10;;;9.60;99.90;;;;;;4995518;28;20034;-80
2022/11/23 04:23:24;;;;;;;14.07;2.67;;;9.60;99.90;;;;;;4995252;28;20088;-80
2022/11/23 04:25:49;;;;;;;13.83;2.50;;;9.60;99.90;;;;;;5010992;28;20030;-80
2022/11/23 04:28:15;;;;;;;4.73;1.53;;;9.60;99.90;;;;;;4978912;28;20026;-80
2022/11/23 04:30:41;;;;;;;14.63;2.43;;;9.50;99.90;;;;;;4995227;28;20054;-80
2022/11/23 04:33:06;;;;;;;10.83;1.80;;;9.50;99.90;;;;;;4994916;28;20148;-80
2022/11/23 04:35:33;;;;;;;12.13;2.43;;;9.40;99.90;;;;;;4978871;28;20121;-79
2022/11/23 04:37:59;;;;;;;9.03;2.67;;;9.40;99.90;;;;;;4996000;28;20026;-79
2022/11/23 04:40:25;;;;;;;12.97;2.40;;;9.30;99.90;;;;;;4995952;28;20455;-80
2022/11/23 04:42:51;;;;;;;10.90;2.90;;;9.30;99.90;;;;;;4995826;28;20062;-80
2022/11/23 04:45:17;;;;;;;14.73;1.77;;;9.30;99.90;;;;;;4979323;28;20031;-81
2022/11/23 04:47:42;;;;;;;12.77;1.90;;;9.30;99.90;;;;;;4995597;28;20771;-80
2022/11/23 04:50:08;;;;;;;10.70;1.80;;;9.30;99.90;;;;;;4992941;28;20749;-80
2022/11/23 04:52:34;;;;;;;8.03;2.20;;;9.30;99.90;;;;;;5013417;28;20030;-80
2022/11/23 04:54:59;;;;;;;13.67;2.20;;;9.30;99.90;;;;;;5012760;28;20553;-81
2022/11/23 04:57:25;;;;;;;7.63;1.83;;;9.30;99.90;;;;;;4997236;28;20401;-80
2022/11/23 04:59:51;;;;;;;11.33;2.00;;;9.20;99.90;;;;;;5014530;28;20462;-80
2022/11/23 05:02:16;;;;;;;9.13;1.33;;;9.20;99.90;;;;;;5013545;28;20069;-80
2022/11/23 05:04:42;;;;;;;13.07;2.10;;;9.20;99.90;;;;;;4997627;28;20026;-80
2022/11/23 05:07:09;;;;;;;11.03;1.90;;;9.20;99.90;;;;;;4997476;28;20030;-81
2022/11/23 05:09:35;;;;;;;10.23;1.93;;;9.20;99.90;;;;;;5014133;28;20100;-81
2022/11/23 05:12:00;;;;;;;11.50;2.23;;;9.30;99.90;;;;;;5014001;28;20113;-81
2022/11/23 05:14:26;;;;;;;9.37;2.13;;;9.20;99.90;;;;;;5015067;28;20032;-81
2022/11/23 05:16:51;;;;;;;8.57;1.93;;;9.30;99.90;;;;;;4999351;28;20070;-80
2022/11/23 05:19:17;;;;;;;10.43;1.83;;;9.30;99.90;;;;;;5034668;28;20030;-80
2022/11/23 05:21:42;;;;;;;10.53;1.20;;;9.20;99.90;;;;;;5016060;28;20473;-80
2022/11/23 05:24:08;;;;;;;12.67;2.40;;;9.30;99.90;;;;;;5017258;28;20033;-80
2022/11/23 05:26:34;;;;;;;9.73;1.83;;;9.30;99.90;;;;;;5000965;28;20032;-80
2022/11/23 05:28:59;;;;;;;13.27;1.60;;;9.30;99.90;;;;;;4995571;28;20055;-81
2022/11/23 05:31:25;;;;;;;12.13;1.73;;;9.30;99.90;;;;;;4987821;28;20415;-80
2022/11/23 05:33:51;;;;;;;11.67;2.20;;;9.30;99.90;;;;;;5013061;28;20037;-80
2022/11/23 05:36:16;;;;;;;12.80;2.17;;;9.30;99.90;;;;;;5013480;28;20042;-80
2022/11/23 05:38:42;;;;;;;9.70;2.00;;;9.30;99.90;;;;;;4996925;28;20524;-80
2022/11/23 05:41:07;;;;;;;13.67;1.43;;;9.30;99.90;;;;;;5014755;28;20057;-80
2022/11/23 05:43:33;;;;;;;10.63;1.70;;;9.30;99.90;;;;;;4997303;28;20030;-80
2022/11/23 05:46:00;;;;;;;9.50;1.83;;;9.30;99.90;;;;;;4996853;28;20056;-80
2022/11/23 05:48:26;;;;;;;8.83;1.87;;;9.30;99.90;;;;;;4996932;28;20030;-80
2022/11/23 05:50:51;;;;;;;12.30;1.87;;;9.30;99.90;;;;;;4996909;28;20435;-80
2022/11/23 05:53:17;;;;;;;14.47;1.70;;;9.30;99.90;;;;;;4997872;28;20029;-81
2022/11/23 05:55:43;;;;;;;13.10;1.80;;;9.40;99.90;;;;;;5004206;28;20037;-81
2022/11/23 05:58:09;;;;;;;19.03;2.70;;;9.40;99.90;;;;;;4980684;28;20076;-81
2022/11/23 06:00:34;;;;;;;18.13;2.20;;;9.40;99.90;;;;;;4996235;28;20034;-81
2022/11/23 06:03:01;;;;;;;10.17;2.37;;;9.40;99.90;;;;;;4980772;28;20022;-81
2022/11/23 06:05:27;;;;;;;13.83;2.23;;;9.40;99.90;;;;;;4996895;28;20109;-81
2022/11/23 06:07:53;;;;;;;13.70;2.20;;;9.40;99.90;;;;;;5003822;28;20387;-81
2022/11/23 06:10:19;;;;;;;13.60;1.97;;;9.40;99.90;;;;;;5003519;28;20037;-81
2022/11/23 06:12:45;;;;;;;12.17;1.93;;;9.40;99.90;;;;;;5006627;28;20030;-80
2022/11/23 06:15:11;;;;;;;10.93;2.13;;;9.40;99.90;;;;;;5024362;28;20030;-81
2022/11/23 06:17:37;;;;;;;10.50;1.73;;;9.40;99.90;;;;;;5021761;28;20050;-81
2022/11/23 06:20:04;;;;;;;11.40;2.70;;;9.30;99.90;;;;;;5015341;28;20025;-81
2022/11/23 06:22:30;;;;;;;13.90;2.80;;;9.40;99.90;;;;;;5011495;28;20075;-81
2022/11/23 06:24:56;;;;;;;11.80;1.60;;;9.40;99.90;;;;;;5008127;28;20028;-81
2022/11/23 06:27:21;;;;;;;10.00;1.93;;;9.30;99.90;;;;;;5034731;28;20083;-81
2022/11/23 06:29:47;;;;;;;13.77;2.37;;;9.30;99.90;;;;;;5015576;28;20025;-81
2022/11/23 06:32:14;;;;;;;12.47;1.80;;;9.30;99.90;;;;;;4983347;28;20375;-81
2022/11/23 06:34:39;;;;;;;14.27;2.40;;;9.30;99.90;;;;;;4993953;28;20053;-81
2022/11/23 06:37:05;;;;;;;8.30;1.83;;;9.30;99.90;;;;;;4995680;28;20070;-81
2022/11/23 06:39:31;;;;;;;14.00;1.90;;;9.30;99.90;;;;;;4995699;28;20026;-80
2022/11/23 06:41:56;;;;;;;10.40;2.07;;;9.30;99.90;;;;;;4988402;28;20021;-81
2022/11/23 06:44:22;;;;;;;16.47;2.40;;;9.30;99.90;;;;;;5018123;28;20113;-81
2022/11/23 06:46:48;;;;;;;19.60;2.83;;;9.30;99.90;;;;;;4979926;28;20109;-81
2022/11/23 06:49:14;;;;;;;9.27;1.90;;;9.30;99.90;;;;;;5012192;28;20014;-81
2022/11/23 06:51:40;;;;;;;17.83;3.20;;;9.30;99.90;;;;;;5011831;28;20132;-81
2022/11/23 06:54:06;;;;;;;12.47;2.07;;;9.30;99.90;;;;;;4995979;28;20557;-80
2022/11/23 06:56:31;;;;;;;16.73;2.87;;;9.30;99.90;;;;;;4995718;28;20130;-80
2022/11/23 06:58:57;;;;;;;10.63;2.13;;;9.40;99.90;;;;;;5011887;28;20116;-80
2022/11/23 07:01:22;;;;;;;13.70;2.40;;;9.30;99.90;;;;;;4996072;28;20033;-80
2022/11/23 07:03:48;;;;;;;13.43;2.37;;;9.30;99.90;;;;;;4999984;28;20540;-80
2022/11/23 07:06:14;;;;;;;17.40;2.83;;;9.30;99.90;;;;;;5032029;28;20025;-80
2022/11/23 07:08:42;;;;;;;16.33;1.80;;;9.30;99.90;;;;;;5018931;28;20029;-79
2022/11/23 07:11:09;;;;;;;14.47;2.20;;;9.30;99.90;;;;;;5034735;28;20166;-80
2022/11/23 07:13:35;;;;;;;13.77;1.80;;;9.30;99.90;;;;;;5034898;28;20032;-80
2022/11/23 07:16:01;;;;;;;15.93;2.80;;;9.30;99.90;;;;;;5034663;28;20033;-80
2022/11/23 07:18:27;;;;;;;15.50;2.47;;;9.30;99.90;;;;;;5017777;28;20068;-80
2022/11/23 07:20:53;;;;;;;13.80;2.03;;;9.40;99.90;;;;;;5018118;28;20040;-80
2022/11/23 07:23:19;;;;;;;12.77;2.03;;;9.30;99.90;;;;;;5017990;28;20033;-80
2022/11/23 07:25:45;;;;;;;9.23;1.50;;;9.30;99.90;;;;;;5018760;28;20104;-80
2022/11/23 07:28:12;;;;;;;16.13;2.47;;;9.30;99.90;;;;;;5018166;28;20029;-80
2022/11/23 07:30:38;;;;;;;12.67;2.27;;;9.20;99.90;;;;;;5034650;28;20028;-80
2022/11/23 07:33:07;;;;;;;14.97;2.00;;;9.30;99.90;;;;;;5017953;28;20123;-80
2022/11/23 07:35:33;;;;;;;13.67;2.27;;;9.30;99.90;;;;;;5052295;28;20021;-80
2022/11/23 07:37:59;;;;;;;19.17;2.20;;;9.30;99.90;;;;;;5018227;28;20033;-80
2022/11/23 07:40:25;;;;;;;13.10;2.47;;;9.30;99.90;;;;;;5018382;28;20126;-80
2022/11/23 07:42:51;;;;;;;9.50;1.83;;;9.30;99.90;;;;;;5034732;28;20025;-80
2022/11/23 07:45:17;;;;;;;19.43;2.53;;;9.30;99.90;;;;;;5003369;28;20543;-80
2022/11/23 07:47:42;;;;;;;10.20;2.00;;;9.30;99.90;;;;;;5022073;28;20025;-80
2022/11/23 07:50:10;;;;;;;13.60;2.20;;;9.30;99.90;;;;;;5022244;28;20033;-80
2022/11/23 07:52:37;;;;;;;14.73;2.77;;;9.30;99.90;;;;;;5007790;28;20033;-80
2022/11/23 07:55:03;;;;;;;17.40;3.07;;;9.30;99.90;;;;;;4998645;28;20026;-80
2022/11/23 07:57:29;;;;;;;18.47;3.57;;;9.30;99.90;;;;;;4998585;28;20401;-79
2022/11/23 07:59:54;;;;;;;14.57;3.03;;;9.20;99.90;;;;;;5015085;28;20045;-80
2022/11/23 08:02:20;;;;;;;22.53;3.57;;;9.20;99.90;;;;;;4998719;28;20033;-79
2022/11/23 08:04:46;;;;;;;15.20;2.27;;;9.20;99.90;;;;;;4998691;28;20395;-79
2022/11/23 08:07:12;;;;;;;17.83;3.57;;;9.20;99.90;;;;;;4982719;28;20376;-80
2022/11/23 08:09:37;;;;;;;16.40;2.87;;;9.20;99.90;;;;;;4998751;28;20034;-80
2022/11/23 08:12:04;;;;;;;14.20;2.23;;;9.30;99.90;;;;;;4998681;28;20022;-79
2022/11/23 08:14:30;;;;;;;22.00;1.90;;;9.30;99.90;;;;;;4998387;28;20536;-80
2022/11/23 08:16:55;;;;;;;10.97;2.03;;;9.30;99.90;;;;;;4998542;28;20046;-80
2022/11/23 08:19:21;;;;;;;17.73;2.20;;;9.30;99.90;;;;;;5001668;28;20123;-80
2022/11/23 08:21:46;;;;;;;13.00;2.03;;;9.30;99.90;;;;;;5017929;28;20477;-80
2022/11/23 08:24:12;;;;;;;11.03;2.07;;;9.40;99.90;;;;;;5001665;28;20112;-80
2022/11/23 08:26:38;;;;;;;6.77;1.17;;;9.40;99.90;;;;;;5001796;28;20128;-80
2022/11/23 08:29:04;;;;;;;12.07;1.70;;;9.50;99.90;;;;;;5001780;28;20034;-80
2022/11/23 08:31:30;;;;;;;13.63;2.60;;;9.40;99.90;;;;;;5001663;28;20061;-80
2022/11/23 08:33:55;;;;;;;15.03;2.00;;;9.50;99.90;;;;;;5001548;28;20064;-79
2022/11/23 08:36:21;;;;;;;13.07;1.90;;;9.50;99.90;;;;;;5001484;28;20064;-80
2022/11/23 08:38:50;;;;;;;12.00;1.77;;;9.50;99.70;;;;;;5018157;28;20080;-80
2022/11/23 08:41:19;;;;;;;15.50;2.60;;;9.50;99.70;;;;;;5001966;28;20032;-80
2022/11/23 08:43:48;;;;;;;13.17;1.90;;;9.60;99.50;;;;;;5001969;28;20022;-80
2022/11/23 08:46:13;;;;;;;15.27;2.63;;;9.70;99.30;;;;;;5017593;28;20026;-80
2022/11/23 08:48:39;;;;;;;12.23;1.60;;;9.80;99.20;;;;;;5035165;28;20377;-80
2022/11/23 08:51:05;;;;;;;14.17;2.23;;;9.80;98.80;;;;;;5001509;28;20498;-80
2022/11/23 08:53:31;;;;;;;5.87;1.43;;;9.90;98.40;;;;;;5017568;28;20477;-79
2022/11/23 08:56:00;;;;;;;13.17;2.30;;;10.00;98.40;;;;;;5001113;28;20049;-80
2022/11/23 08:58:25;;;;;;;12.23;1.80;;;10.10;98.40;;;;;;5001148;28;20163;-80
2022/11/23 09:00:51;;;;;;;14.13;2.03;;;10.20;98.00;;;;;;5017336;28;20523;-80
2022/11/23 09:03:17;;;;;;;14.57;1.80;;;10.30;97.00;;;;;;5001238;28;20029;-80
2022/11/23 09:05:42;;;;;;;13.27;2.10;;;10.40;97.00;;;;;;5017642;28;20035;-80
2022/11/23 09:08:08;;;;;;;14.82;1.88;;;10.40;96.60;;;;;;5017532;28;20037;-80
2022/11/23 09:10:35;;;;;;;16.43;2.23;;;10.40;95.90;;;;;;5017260;28;20037;-80
2022/11/23 09:13:00;;;;;;;17.97;2.70;;;10.40;95.00;;;;;;5000638;28;20116;-80
2022/11/23 09:15:26;;;;;;;11.80;1.87;;;10.50;94.70;;;;;;5000631;28;20132;-80
2022/11/23 09:17:51;;;;;;;18.83;2.57;;;10.50;94.60;;;;;;5000883;28;20029;-80
2022/11/23 09:20:17;;;;;;;15.93;2.07;;;10.50;94.20;;;;;;5017021;28;20034;-80
2022/11/23 09:22:43;;;;;;;11.87;2.90;;;10.60;93.80;;;;;;5000847;28;20108;-80
2022/11/23 09:25:09;;;;;;;10.73;1.83;;;10.60;93.70;;;;;;5016854;28;20561;-80
2022/11/23 09:27:35;;;;;;;11.80;1.63;;;10.80;93.40;;;;;;5016939;28;20394;-80
2022/11/23 09:30:01;;;;;;;9.45;1.65;;;11.00;93.60;;;;;;5016785;28;20109;-79
2022/11/23 09:32:27;;;;;;;14.23;1.98;;;11.30;93.70;;;;;;5016699;28;20079;-79
2022/11/23 09:34:52;;;;;;;14.82;2.42;;;11.70;93.70;;;;;;5017199;28;20021;-79
2022/11/23 09:37:18;;;;;;;9.43;1.88;;;12.00;92.70;;;;;;5019273;28;20413;-79
2022/11/23 09:39:43;;;;;;;11.55;1.65;;;12.40;91.80;;;;;;5008862;28;20405;-79
2022/11/23 09:42:33;;;;;;;7.35;1.17;;;12.90;91.80;;;;;;5044222;28;20461;-80
2022/11/23 09:45:07;;;;;;;11.18;2.10;;;13.40;91.20;;;;;;5023628;28;20440;-80
2022/11/23 09:47:53;;;;;;;13.25;1.50;;;13.90;90.50;;;;;;5023016;28;20069;-80
2022/11/23 09:50:46;;;;;;;11.75;2.00;;;14.30;90.20;;;;;;5022851;28;20021;-80
2022/11/23 09:53:17;;;;;;;9.27;1.65;;;14.90;87.30;;;;;;5049506;28;20029;-80
2022/11/23 09:55:49;;;;;;;12.98;1.95;;;15.30;85.20;;;;;;5036156;28;20083;-81
2022/11/23 09:58:20;;;;;;;10.05;1.85;;;15.70;82.30;;;;;;5036218;28;20111;-80
2022/11/23 10:01:06;;;;;;;8.85;1.92;;;16.00;80.20;;;;;;5020019;28;20108;-80
2022/11/23 10:03:35;;;;;;;9.68;1.63;;;16.40;75.80;;;;;;5029786;28;20083;-81
2022/11/23 10:06:26;;;;;;;11.25;2.08;;;16.70;76.00;;;;;;5053468;28;20079;-81
2022/11/23 10:09:04;;;;;;;8.23;1.40;;;16.90;72.10;;;;;;5051708;28;20021;-81
2022/11/23 10:12:16;;;;;;;10.48;1.60;;;17.10;70.60;;;;;;5035266;28;20029;-81
2022/11/23 10:15:02;;;;;;;6.35;1.30;;;17.30;69.00;;;;;;5008844;28;20037;-81
2022/11/23 10:18:05;;;;;;;9.20;1.45;;;17.50;68.00;;;;;;5035397;28;20037;-81
2022/11/23 10:21:08;;;;;;;8.63;1.70;;;17.50;66.10;;;;;;5035075;28;20048;-81
2022/11/23 10:24:07;;;;;;;7.82;1.63;;;17.60;65.90;;;;;;5035546;28;20021;-81
2022/11/23 10:26:37;;;;;;;9.65;1.98;;;17.70;65.90;;;;;;5035481;28;20036;-80
2022/11/23 10:29:28;;;;;;;7.53;1.90;;;17.60;62.30;;;;;;5035554;28;20029;-81
2022/11/23 10:31:55;;;;;;;11.43;1.75;;;17.30;62.50;;;;;;5035538;28;20127;-81
2022/11/23 10:34:33;;;;;;;6.63;1.70;;;16.90;62.90;;;;;;5019153;28;20025;-80
2022/11/23 10:36:59;;;;;;;8.88;1.42;;;16.80;63.50;;;;;;5053353;28;20108;-80
2022/11/23 10:39:26;;;;;;;10.20;2.00;;;16.70;63.20;;;;;;5019528;28;20071;-80
2022/11/23 10:41:56;;;;;;;11.00;1.75;;;16.70;63.60;;;;;;5019343;28;20025;-81
2022/11/23 10:44:31;;;;;;;6.38;1.52;;;16.90;63.50;;;;;;5053421;28;20112;-80
2022/11/23 10:46:58;;;;;;;10.95;2.05;;;17.10;62.90;;;;;;5053033;28;20375;-80
2022/11/23 10:49:28;;;;;;;6.93;1.75;;;17.20;62.10;;;;;;5053544;28;20103;-80
2022/11/23 10:52:04;;;;;;;10.27;1.80;;;17.40;62.00;;;;;;5035437;28;20070;-81
2022/11/23 10:54:29;;;;;;;7.95;1.30;;;17.70;62.30;;;;;;5050266;28;20072;-80
2022/11/23 10:56:57;;;;;;;7.90;1.20;;;17.90;61.40;;;;;;5015584;28;20536;-81
2022/11/23 10:59:32;;;;;;;4.85;1.10;;;18.10;61.20;;;;;;5032954;28;20061;-81
2022/11/23 11:02:15;;;;;;;9.10;1.67;;;18.10;60.10;;;;;;5015779;28;20517;-80
2022/11/23 11:04:42;;;;;;;8.73;1.52;;;18.20;59.30;;;;;;5039628;28;20026;-81
2022/11/23 11:07:18;;;;;;;7.68;1.30;;;18.20;59.40;;;;;;5008167;28;20021;-80
2022/11/23 11:09:50;;;;;;;7.25;1.25;;;18.10;58.50;;;;;;5039937;28;20153;-80
2022/11/23 11:12:17;;;;;;;7.50;1.52;;;18.10;58.90;;;;;;5023396;28;20021;-80
2022/11/23 11:15:13;;;;;;;7.10;2.03;;;18.00;58.30;;;;;;5043120;28;20013;-81
2022/11/23 11:17:40;;;;;;;6.10;1.27;;;17.90;58.70;;;;;;5024866;28;20029;-80
2022/11/23 11:20:28;;;;;;;9.07;1.65;;;17.80;58.40;;;;;;5008049;28;20046;-80
2022/11/23 11:22:55;;;;;;;6.97;1.27;;;17.70;58.90;;;;;;5017235;28;20021;-81
2022/11/23 11:25:32;;;;;;;5.32;1.38;;;17.60;58.30;;;;;;4983718;28;20029;-81
2022/11/23 11:27:58;;;;;;;7.80;1.38;;;17.50;58.60;;;;;;4999439;28;20520;-81
2022/11/23 11:30:29;;;;;;;9.18;2.47;;;17.40;58.60;;;;;;4983073;28;20525;-81
2022/11/23 11:33:18;;;;;;;13.27;2.33;;;17.20;58.80;;;;;;4999531;28;20112;-81
2022/11/23 11:35:48;;;;;;;5.95;1.10;;;17.10;58.20;;;;;;5016990;28;20021;-81
2022/11/23 11:38:46;;;;;;;7.75;1.20;;;17.10;58.90;;;;;;4999448;28;20154;-82
2022/11/23 11:41:14;;;;;;;5.80;1.08;;;17.10;58.90;;;;;;5005554;28;20060;-81
2022/11/23 11:43:57;;;;;;;10.63;1.40;;;17.20;58.80;;;;;;5019061;28;20024;-81
2022/11/23 11:46:30;;;;;;;6.82;1.25;;;17.20;59.10;;;;;;5040378;28;20101;-81
2022/11/23 11:49:16;;;;;;;10.38;1.70;;;17.40;59.10;;;;;;5045180;28;20028;-81
2022/11/23 11:51:46;;;;;;;7.65;1.45;;;17.60;58.30;;;;;;5022321;28;20033;-81
2022/11/23 11:54:18;;;;;;;7.35;1.00;;;17.60;58.10;;;;;;5027133;28;20104;-81
2022/11/23 11:56:50;;;;;;;7.25;1.48;;;17.70;58.10;;;;;;5017009;28;20042;-81
2022/11/23 11:59:28;;;;;;;10.53;1.83;;;17.60;57.40;;;;;;5017713;28;20033;-81
2022/11/23 12:02:08;;;;;;;6.38;1.23;;;17.70;57.30;;;;;;5015341;28;20042;-81
2022/11/23 12:04:42;;;;;;;5.57;1.33;;;17.80;57.80;;;;;;5016495;28;20026;-81
2022/11/23 12:07:08;;;;;;;7.90;1.23;;;18.10;57.60;;;;;;5016511;28;20029;-81
2022/11/23 12:09:39;;;;;;;5.95;1.10;;;18.10;55.80;;;;;;5015441;28;20026;-80
2022/11/23 12:12:13;;;;;;;5.80;1.13;;;17.70;55.40;;;;;;5014938;28;20034;-80
2022/11/23 12:14:39;;;;;;;10.30;1.77;;;17.10;56.20;;;;;;5038398;28;20031;-80
2022/11/23 12:17:18;;;;;;;6.63;0.93;;;16.70;57.20;;;;;;5030100;28;20046;-82
2022/11/23 12:19:55;;;;;;;6.13;1.10;;;16.30;58.00;;;;;;5015112;28;20042;-80
2022/11/23 12:22:23;;;;;;;4.65;0.77;;;16.10;58.90;;;;;;5015086;28;20030;-80
2022/11/23 12:24:58;;;;;;;7.07;0.80;;;16.20;59.10;;;;;;5016088;28;20030;-81
2022/11/23 12:27:35;;;;;;;6.70;1.00;;;16.50;59.80;;;;;;5014696;28;20084;-81
2022/11/23 12:30:17;;;;;;;6.93;0.93;;;16.80;59.20;;;;;;5015249;28;20026;-81
2022/11/23 12:32:54;;;;;;;5.13;0.85;;;17.20;58.80;;;;;;5014386;28;20076;-81
2022/11/23 12:36:06;;;;;;;5.07;1.02;;;17.40;58.00;;;;;;5014093;28;20121;-80
2022/11/23 12:38:49;;;;;;;9.15;1.10;;;17.30;57.50;;;;;;5014577;28;20034;-80
2022/11/23 12:41:41;;;;;;;5.53;0.75;;;17.60;58.10;;;;;;5014170;28;20037;-81
2022/11/23 12:44:39;;;;;;;5.30;0.75;;;18.00;58.00;;;;;;4970931;28;20064;-81
2022/11/23 12:47:23;;;;;;;4.95;1.00;;;18.60;57.50;;;;;;5017663;28;20103;-81
2022/11/23 12:50:09;;;;;;;4.25;0.63;;;19.00;55.80;;;;;;5025830;28;20060;-80
2022/11/23 12:53:00;;;;;;;3.90;0.60;;;19.20;54.80;;;;;;5015844;28;20049;-80
2022/11/23 12:55:48;;;;;;;3.83;0.98;;;19.30;54.00;;;;;;5015785;28;20236;-79